Impacts METAR Board
IDs:

KSEA - Seattle-Tacoma Intl, WA, US

Updated at: 2300 UTC 23 Oct 2019
Potential Impact None Slight Moderate High
Time 23/11Z 23/12Z 23/13Z 23/14Z 23/15Z 23/16Z 23/17Z 23/18Z 23/19Z 23/20Z 23/21Z 23/22Z 23/23Z
Temp45 46 47 47 46 47 47 51 54 56 57 57 56
Dewpt42 43 43 43 44 45 45 46 45 43 44 44 44
Altim30.46 30.47 30.47 30.49 30.49 30.51 30.51 30.51 30.52 30.50 30.48 30.47 30.47
VIS10 10 9 0.5 0.25 0.5 0.25 7 10 10 10 10 10
CIG-- -- -- 1 1 1 1 250 -- -- 250 250 250
CoverFEWFEWFEWOVCOVXOVCOVXBKNSCTSCTBKNBKNBKN
FltCatVFRVFRVFRLIFRLIFRLIFRLIFRVFRVFRVFRVFRVFRVFR
WX------FGFGFGFG------------
WDir105030305036040360350360350350320
WSpd6 4 5 6 5 6 7 5 7 6 7 8 7
WGst-- -- -- -- -- -- -- -- -- -- -- -- --
Raw hourly METARs
KSEA 231053Z 01006KT 10SM FEW012 07/06 A3046 RMK AO2 SLP324 T00720056 $
KSEA 231153Z 05004KT 10SM FEW012 08/06 A3047 RMK AO2 SLP326 70010 T00780061 10106 20067 52006 $
KSEA 231253Z 03005KT 9SM FEW010 08/06 A3047 RMK AO2 SLP326 T00830061 $
KSEA 231403Z 03006KT 1/2SM R16L/3500VP6000FT FG OVC001 08/06 A3049 RMK AO2 TWR VIS 10 T00830061 $
KSEA 231453Z 05005KT 1/4SM R16L/1000V2000FT FG VV001 08/07 A3049 RMK AO2 TWR VIS 10 SLP333 T00780067 53007 $
KSEA 231553Z 36006KT 1/2SM R16L/1400VP6000FT FG BKN001 OVC005 08/07 A3051 RMK AO2 TWR VIS 10 SLP339 T00830072 $
KSEA 231653Z 04007KT 1/4SM R16L/2600VP6000FT FG VV001 08/07 A3051 RMK AO2 SFC VIS 1/2 SLP341 T00830072 $
KSEA 231753Z 36005KT 7SM SCT003 BKN250 11/08 A3051 RMK AO2 SLP340 SCT V BKN T01060078 10106 20061 50007 $
KSEA 231853Z 35007KT 10SM FEW008 SCT250 12/07 A3052 RMK AO2 SLP341 T01220072 $
KSEA 231953Z 36006KT 10SM FEW012 SCT250 13/06 A3050 RMK AO2 SLP334 T01330061 $
KSEA 232053Z 35007KT 10SM FEW020 BKN250 14/07 A3048 RMK AO2 SLP329 T01390067 58009 $
KSEA 232153Z 35008KT 10SM FEW020 FEW160 BKN250 14/07 A3047 RMK AO2 SLP325 T01390067 $
KSEA 232253Z 32007KT 10SM FEW025 FEW160 BKN250 13/07 A3047 RMK AO2 SLP327 T01330067 $



Page loaded:  23:24 UTC  |   04:24 PM Pacific  |   05:24 PM Mountain  |   06:24 PM Central  |   07:24 PM Eastern

 

ADVISORIES

FORECASTS

FORECASTS

OBSERVATIONS

USER TOOLS

ABOUT US